sensor_id;sensor_type;location;lat;lon;timestamp;P1;durP1;ratioP1;P2;durP2;ratioP2
261;SDS011;114;48.260;10.988;2022-07-04T00:00:28;2.77;;;2.00;;
261;SDS011;114;48.260;10.988;2022-07-04T00:02:56;3.90;;;2.10;;
261;SDS011;114;48.260;10.988;2022-07-04T00:05:22;2.43;;;1.87;;
261;SDS011;114;48.260;10.988;2022-07-04T00:07:48;2.43;;;2.00;;
261;SDS011;114;48.260;10.988;2022-07-04T00:10:16;3.03;;;1.70;;
261;SDS011;114;48.260;10.988;2022-07-04T00:12:45;3.23;;;1.60;;
261;SDS011;114;48.260;10.988;2022-07-04T00:15:11;2.07;;;1.87;;
261;SDS011;114;48.260;10.988;2022-07-04T00:17:38;1.90;;;1.80;;
261;SDS011;114;48.260;10.988;2022-07-04T00:20:05;1.53;;;1.43;;
261;SDS011;114;48.260;10.988;2022-07-04T00:22:32;4.60;;;1.30;;
261;SDS011;114;48.260;10.988;2022-07-04T00:24:58;2.73;;;1.60;;
261;SDS011;114;48.260;10.988;2022-07-04T00:27:24;2.80;;;1.73;;
261;SDS011;114;48.260;10.988;2022-07-04T00:29:51;3.70;;;1.77;;
261;SDS011;114;48.260;10.988;2022-07-04T00:32:17;3.67;;;2.40;;
261;SDS011;114;48.260;10.988;2022-07-04T00:34:43;13.17;;;2.20;;
261;SDS011;114;48.260;10.988;2022-07-04T00:37:08;2.20;;;2.10;;
261;SDS011;114;48.260;10.988;2022-07-04T00:39:35;7.20;;;2.10;;
261;SDS011;114;48.260;10.988;2022-07-04T00:42:01;2.60;;;1.83;;
261;SDS011;114;48.260;10.988;2022-07-04T00:44:31;7.60;;;2.03;;
261;SDS011;114;48.260;10.988;2022-07-04T00:47:02;2.23;;;1.97;;
261;SDS011;114;48.260;10.988;2022-07-04T00:49:32;4.70;;;2.10;;
261;SDS011;114;48.260;10.988;2022-07-04T00:51:58;7.87;;;2.50;;
261;SDS011;114;48.260;10.988;2022-07-04T00:54:26;15.13;;;2.40;;
261;SDS011;114;48.260;10.988;2022-07-04T00:56:54;6.77;;;2.80;;
261;SDS011;114;48.260;10.988;2022-07-04T00:59:21;10.70;;;2.37;;
261;SDS011;114;48.260;10.988;2022-07-04T01:01:47;4.00;;;2.67;;
261;SDS011;114;48.260;10.988;2022-07-04T01:04:14;10.47;;;2.80;;
261;SDS011;114;48.260;10.988;2022-07-04T01:06:40;8.63;;;2.77;;
261;SDS011;114;48.260;10.988;2022-07-04T01:09:07;4.90;;;3.50;;
261;SDS011;114;48.260;10.988;2022-07-04T01:11:33;5.17;;;3.10;;
261;SDS011;114;48.260;10.988;2022-07-04T01:13:59;5.27;;;2.50;;
261;SDS011;114;48.260;10.988;2022-07-04T01:16:26;5.70;;;2.57;;
261;SDS011;114;48.260;10.988;2022-07-04T01:18:53;18.67;;;3.27;;
261;SDS011;114;48.260;10.988;2022-07-04T01:21:19;4.53;;;2.77;;
261;SDS011;114;48.260;10.988;2022-07-04T01:23:46;3.60;;;2.50;;
261;SDS011;114;48.260;10.988;2022-07-04T01:26:12;12.80;;;3.10;;
261;SDS011;114;48.260;10.988;2022-07-04T01:28:40;2.80;;;2.30;;
261;SDS011;114;48.260;10.988;2022-07-04T01:31:09;2.73;;;1.90;;
261;SDS011;114;48.260;10.988;2022-07-04T01:33:36;5.30;;;3.10;;
261;SDS011;114;48.260;10.988;2022-07-04T01:36:03;5.03;;;2.30;;
261;SDS011;114;48.260;10.988;2022-07-04T01:38:29;4.17;;;2.93;;
261;SDS011;114;48.260;10.988;2022-07-04T01:40:55;5.03;;;2.70;;
261;SDS011;114;48.260;10.988;2022-07-04T01:43:20;3.37;;;2.57;;
261;SDS011;114;48.260;10.988;2022-07-04T01:45:46;12.73;;;2.80;;
261;SDS011;114;48.260;10.988;2022-07-04T01:48:12;2.80;;;2.60;;
261;SDS011;114;48.260;10.988;2022-07-04T01:50:39;3.67;;;2.20;;
261;SDS011;114;48.260;10.988;2022-07-04T01:53:06;7.13;;;2.60;;
261;SDS011;114;48.260;10.988;2022-07-04T01:55:32;2.13;;;2.03;;
261;SDS011;114;48.260;10.988;2022-07-04T01:57:59;4.17;;;2.50;;
261;SDS011;114;48.260;10.988;2022-07-04T02:00:26;3.67;;;2.43;;
261;SDS011;114;48.260;10.988;2022-07-04T02:03:14;4.03;;;2.00;;
261;SDS011;114;48.260;10.988;2022-07-04T02:05:40;11.00;;;2.27;;
261;SDS011;114;48.260;10.988;2022-07-04T02:08:08;2.67;;;2.07;;
261;SDS011;114;48.260;10.988;2022-07-04T02:10:36;4.10;;;3.00;;
261;SDS011;114;48.260;10.988;2022-07-04T02:13:02;4.10;;;2.50;;
261;SDS011;114;48.260;10.988;2022-07-04T02:15:32;6.73;;;2.77;;
261;SDS011;114;48.260;10.988;2022-07-04T02:18:05;2.53;;;2.33;;
261;SDS011;114;48.260;10.988;2022-07-04T02:20:33;4.20;;;2.57;;
261;SDS011;114;48.260;10.988;2022-07-04T02:22:59;3.77;;;2.40;;
261;SDS011;114;48.260;10.988;2022-07-04T02:25:26;4.20;;;2.20;;
261;SDS011;114;48.260;10.988;2022-07-04T02:27:51;4.60;;;2.40;;
261;SDS011;114;48.260;10.988;2022-07-04T02:30:17;3.07;;;2.33;;
261;SDS011;114;48.260;10.988;2022-07-04T02:32:43;5.57;;;2.70;;
261;SDS011;114;48.260;10.988;2022-07-04T02:35:09;6.03;;;2.53;;
261;SDS011;114;48.260;10.988;2022-07-04T02:37:36;4.73;;;2.47;;
261;SDS011;114;48.260;10.988;2022-07-04T02:40:02;3.43;;;2.50;;
261;SDS011;114;48.260;10.988;2022-07-04T02:42:30;7.00;;;2.83;;
261;SDS011;114;48.260;10.988;2022-07-04T02:44:57;2.90;;;2.57;;
261;SDS011;114;48.260;10.988;2022-07-04T02:47:22;3.47;;;2.70;;
261;SDS011;114;48.260;10.988;2022-07-04T02:49:49;4.10;;;2.20;;
261;SDS011;114;48.260;10.988;2022-07-04T02:52:15;3.00;;;2.70;;
261;SDS011;114;48.260;10.988;2022-07-04T02:54:41;2.70;;;2.30;;
261;SDS011;114;48.260;10.988;2022-07-04T02:57:08;3.67;;;2.87;;
261;SDS011;114;48.260;10.988;2022-07-04T02:59:34;3.80;;;3.00;;
261;SDS011;114;48.260;10.988;2022-07-04T03:02:00;3.20;;;2.67;;
261;SDS011;114;48.260;10.988;2022-07-04T03:04:29;3.33;;;3.03;;
261;SDS011;114;48.260;10.988;2022-07-04T03:06:54;7.03;;;3.23;;
261;SDS011;114;48.260;10.988;2022-07-04T03:09:21;7.10;;;2.87;;
261;SDS011;114;48.260;10.988;2022-07-04T03:11:47;4.50;;;2.97;;
261;SDS011;114;48.260;10.988;2022-07-04T03:14:13;3.93;;;2.70;;
261;SDS011;114;48.260;10.988;2022-07-04T03:16:38;4.80;;;2.70;;
261;SDS011;114;48.260;10.988;2022-07-04T03:19:04;5.03;;;2.70;;
261;SDS011;114;48.260;10.988;2022-07-04T03:21:30;15.30;;;3.70;;
261;SDS011;114;48.260;10.988;2022-07-04T03:23:56;11.00;;;2.90;;
261;SDS011;114;48.260;10.988;2022-07-04T03:26:32;6.53;;;2.30;;
261;SDS011;114;48.260;10.988;2022-07-04T03:28:58;3.70;;;2.83;;
261;SDS011;114;48.260;10.988;2022-07-04T03:31:25;4.33;;;2.80;;
261;SDS011;114;48.260;10.988;2022-07-04T03:33:52;4.50;;;3.13;;
261;SDS011;114;48.260;10.988;2022-07-04T03:36:18;6.63;;;3.10;;
261;SDS011;114;48.260;10.988;2022-07-04T03:38:44;2.93;;;2.73;;
261;SDS011;114;48.260;10.988;2022-07-04T03:41:10;8.50;;;3.80;;
261;SDS011;114;48.260;10.988;2022-07-04T03:43:36;3.80;;;3.20;;
261;SDS011;114;48.260;10.988;2022-07-04T03:46:02;12.20;;;3.33;;
261;SDS011;114;48.260;10.988;2022-07-04T03:48:28;4.67;;;2.93;;
261;SDS011;114;48.260;10.988;2022-07-04T03:50:54;2.60;;;2.40;;
261;SDS011;114;48.260;10.988;2022-07-04T03:53:20;2.67;;;2.40;;
261;SDS011;114;48.260;10.988;2022-07-04T03:55:46;10.30;;;2.43;;
261;SDS011;114;48.260;10.988;2022-07-04T03:58:12;4.07;;;3.07;;
261;SDS011;114;48.260;10.988;2022-07-04T04:00:38;5.13;;;2.60;;
261;SDS011;114;48.260;10.988;2022-07-04T04:03:04;6.17;;;2.57;;
261;SDS011;114;48.260;10.988;2022-07-04T04:05:53;16.97;;;3.30;;
261;SDS011;114;48.260;10.988;2022-07-04T04:08:19;4.83;;;2.50;;
261;SDS011;114;48.260;10.988;2022-07-04T04:10:45;10.47;;;3.50;;
261;SDS011;114;48.260;10.988;2022-07-04T04:13:11;4.00;;;3.17;;
261;SDS011;114;48.260;10.988;2022-07-04T04:15:37;3.77;;;2.70;;
261;SDS011;114;48.260;10.988;2022-07-04T04:18:03;5.33;;;2.57;;
261;SDS011;114;48.260;10.988;2022-07-04T04:20:29;10.53;;;2.50;;
261;SDS011;114;48.260;10.988;2022-07-04T04:22:55;8.10;;;3.10;;
261;SDS011;114;48.260;10.988;2022-07-04T04:25:20;6.53;;;3.03;;
261;SDS011;114;48.260;10.988;2022-07-04T04:27:46;2.40;;;2.20;;
261;SDS011;114;48.260;10.988;2022-07-04T04:30:13;7.80;;;3.70;;
261;SDS011;114;48.260;10.988;2022-07-04T04:32:39;4.63;;;2.13;;
261;SDS011;114;48.260;10.988;2022-07-04T04:35:05;3.63;;;2.17;;
261;SDS011;114;48.260;10.988;2022-07-04T04:37:31;5.83;;;2.10;;
261;SDS011;114;48.260;10.988;2022-07-04T04:39:57;2.60;;;1.83;;
261;SDS011;114;48.260;10.988;2022-07-04T04:42:23;2.83;;;1.53;;
261;SDS011;114;48.260;10.988;2022-07-04T04:44:49;2.60;;;1.80;;
261;SDS011;114;48.260;10.988;2022-07-04T04:47:15;8.70;;;1.90;;
261;SDS011;114;48.260;10.988;2022-07-04T04:49:41;6.40;;;2.50;;
261;SDS011;114;48.260;10.988;2022-07-04T04:52:06;4.30;;;1.73;;
261;SDS011;114;48.260;10.988;2022-07-04T04:54:36;18.70;;;2.53;;
261;SDS011;114;48.260;10.988;2022-07-04T04:57:02;5.83;;;1.63;;
261;SDS011;114;48.260;10.988;2022-07-04T04:59:29;1.70;;;1.60;;
261;SDS011;114;48.260;10.988;2022-07-04T05:01:55;5.03;;;2.13;;
261;SDS011;114;48.260;10.988;2022-07-04T05:04:22;2.90;;;1.90;;
261;SDS011;114;48.260;10.988;2022-07-04T05:06:48;4.03;;;1.67;;
261;SDS011;114;48.260;10.988;2022-07-04T05:09:14;3.63;;;2.53;;
261;SDS011;114;48.260;10.988;2022-07-04T05:11:41;7.30;;;2.00;;
261;SDS011;114;48.260;10.988;2022-07-04T05:14:07;7.60;;;2.00;;
261;SDS011;114;48.260;10.988;2022-07-04T05:16:33;1.90;;;1.80;;
261;SDS011;114;48.260;10.988;2022-07-04T05:18:59;2.47;;;1.83;;
261;SDS011;114;48.260;10.988;2022-07-04T05:21:24;2.13;;;2.03;;
261;SDS011;114;48.260;10.988;2022-07-04T05:23:51;4.10;;;1.80;;
261;SDS011;114;48.260;10.988;2022-07-04T05:26:18;2.93;;;2.53;;
261;SDS011;114;48.260;10.988;2022-07-04T05:28:43;2.50;;;2.30;;
261;SDS011;114;48.260;10.988;2022-07-04T05:31:09;2.13;;;1.93;;
261;SDS011;114;48.260;10.988;2022-07-04T05:33:35;2.80;;;2.03;;
261;SDS011;114;48.260;10.988;2022-07-04T05:36:01;4.20;;;1.80;;
261;SDS011;114;48.260;10.988;2022-07-04T05:38:26;5.37;;;1.57;;
261;SDS011;114;48.260;10.988;2022-07-04T05:40:52;5.73;;;1.67;;
261;SDS011;114;48.260;10.988;2022-07-04T05:43:21;12.83;;;2.20;;
261;SDS011;114;48.260;10.988;2022-07-04T05:45:49;4.60;;;1.87;;
261;SDS011;114;48.260;10.988;2022-07-04T05:48:15;8.23;;;1.80;;
261;SDS011;114;48.260;10.988;2022-07-04T05:50:42;2.63;;;2.43;;
261;SDS011;114;48.260;10.988;2022-07-04T05:53:08;4.10;;;2.00;;
261;SDS011;114;48.260;10.988;2022-07-04T05:55:33;10.60;;;1.97;;
261;SDS011;114;48.260;10.988;2022-07-04T05:58:00;2.17;;;1.60;;
261;SDS011;114;48.260;10.988;2022-07-04T06:00:26;2.73;;;1.70;;
261;SDS011;114;48.260;10.988;2022-07-04T06:02:52;4.20;;;1.77;;
261;SDS011;114;48.260;10.988;2022-07-04T06:05:18;9.10;;;1.90;;
261;SDS011;114;48.260;10.988;2022-07-04T06:07:44;3.03;;;2.07;;
261;SDS011;114;48.260;10.988;2022-07-04T06:10:10;9.23;;;1.80;;
261;SDS011;114;48.260;10.988;2022-07-04T06:12:36;4.30;;;1.90;;
261;SDS011;114;48.260;10.988;2022-07-04T06:15:01;4.90;;;2.10;;
261;SDS011;114;48.260;10.988;2022-07-04T06:17:27;2.93;;;1.57;;
261;SDS011;114;48.260;10.988;2022-07-04T06:19:53;6.97;;;1.97;;
261;SDS011;114;48.260;10.988;2022-07-04T06:22:19;3.07;;;1.70;;
261;SDS011;114;48.260;10.988;2022-07-04T06:24:44;3.50;;;2.03;;
261;SDS011;114;48.260;10.988;2022-07-04T06:27:10;2.60;;;1.83;;
261;SDS011;114;48.260;10.988;2022-07-04T06:29:36;1.80;;;1.70;;
261;SDS011;114;48.260;10.988;2022-07-04T06:32:01;5.70;;;1.63;;
261;SDS011;114;48.260;10.988;2022-07-04T06:34:28;2.30;;;1.30;;
261;SDS011;114;48.260;10.988;2022-07-04T06:37:12;1.50;;;1.40;;
261;SDS011;114;48.260;10.988;2022-07-04T06:39:38;4.60;;;1.43;;
261;SDS011;114;48.260;10.988;2022-07-04T06:42:04;1.80;;;1.47;;
261;SDS011;114;48.260;10.988;2022-07-04T06:44:30;1.97;;;1.50;;
261;SDS011;114;48.260;10.988;2022-07-04T06:46:55;10.30;;;1.53;;
261;SDS011;114;48.260;10.988;2022-07-04T06:49:21;3.90;;;1.10;;
261;SDS011;114;48.260;10.988;2022-07-04T06:51:47;1.47;;;1.17;;
261;SDS011;114;48.260;10.988;2022-07-04T06:54:12;2.27;;;1.30;;
261;SDS011;114;48.260;10.988;2022-07-04T06:56:38;2.00;;;1.40;;
261;SDS011;114;48.260;10.988;2022-07-04T06:59:04;1.13;;;1.03;;
261;SDS011;114;48.260;10.988;2022-07-04T07:01:30;1.23;;;1.10;;
261;SDS011;114;48.260;10.988;2022-07-04T07:03:55;1.83;;;1.37;;
261;SDS011;114;48.260;10.988;2022-07-04T07:06:21;2.30;;;1.20;;
261;SDS011;114;48.260;10.988;2022-07-04T07:08:50;8.37;;;2.00;;
261;SDS011;114;48.260;10.988;2022-07-04T07:11:15;0.97;;;0.83;;
261;SDS011;114;48.260;10.988;2022-07-04T07:13:46;1.93;;;1.40;;
261;SDS011;114;48.260;10.988;2022-07-04T07:16:14;4.80;;;1.30;;
261;SDS011;114;48.260;10.988;2022-07-04T07:18:40;1.50;;;1.40;;
261;SDS011;114;48.260;10.988;2022-07-04T07:21:07;1.63;;;1.13;;
261;SDS011;114;48.260;10.988;2022-07-04T07:23:33;1.87;;;1.40;;
261;SDS011;114;48.260;10.988;2022-07-04T07:25:59;2.10;;;1.60;;
261;SDS011;114;48.260;10.988;2022-07-04T07:28:25;1.10;;;1.00;;
261;SDS011;114;48.260;10.988;2022-07-04T07:30:51;2.40;;;2.00;;
261;SDS011;114;48.260;10.988;2022-07-04T07:33:17;1.20;;;1.17;;
261;SDS011;114;48.260;10.988;2022-07-04T07:35:42;4.30;;;1.60;;
261;SDS011;114;48.260;10.988;2022-07-04T07:38:08;2.60;;;1.70;;
261;SDS011;114;48.260;10.988;2022-07-04T07:40:34;2.03;;;1.40;;
261;SDS011;114;48.260;10.988;2022-07-04T07:43:00;6.83;;;1.93;;
261;SDS011;114;48.260;10.988;2022-07-04T07:45:26;1.50;;;1.40;;
261;SDS011;114;48.260;10.988;2022-07-04T07:47:52;1.57;;;0.93;;
261;SDS011;114;48.260;10.988;2022-07-04T07:50:18;1.33;;;1.00;;
261;SDS011;114;48.260;10.988;2022-07-04T07:52:44;6.13;;;1.60;;
261;SDS011;114;48.260;10.988;2022-07-04T07:55:10;2.83;;;1.17;;
261;SDS011;114;48.260;10.988;2022-07-04T07:57:35;1.23;;;1.00;;
261;SDS011;114;48.260;10.988;2022-07-04T08:00:03;1.60;;;1.50;;
261;SDS011;114;48.260;10.988;2022-07-04T08:02:30;1.80;;;1.17;;
261;SDS011;114;48.260;10.988;2022-07-04T08:05:15;2.07;;;1.13;;
261;SDS011;114;48.260;10.988;2022-07-04T08:07:40;2.43;;;1.60;;
261;SDS011;114;48.260;10.988;2022-07-04T08:10:06;4.77;;;2.90;;
261;SDS011;114;48.260;10.988;2022-07-04T08:12:32;2.23;;;2.03;;
261;SDS011;114;48.260;10.988;2022-07-04T08:14:58;3.33;;;1.47;;
261;SDS011;114;48.260;10.988;2022-07-04T08:17:24;1.63;;;1.20;;
261;SDS011;114;48.260;10.988;2022-07-04T08:19:50;4.53;;;1.63;;
261;SDS011;114;48.260;10.988;2022-07-04T08:22:16;1.93;;;1.17;;
261;SDS011;114;48.260;10.988;2022-07-04T08:24:43;7.50;;;1.47;;
261;SDS011;114;48.260;10.988;2022-07-04T08:27:09;5.30;;;1.40;;
261;SDS011;114;48.260;10.988;2022-07-04T08:29:35;4.20;;;1.90;;
261;SDS011;114;48.260;10.988;2022-07-04T08:32:01;2.17;;;1.20;;
261;SDS011;114;48.260;10.988;2022-07-04T08:34:27;2.63;;;1.13;;
261;SDS011;114;48.260;10.988;2022-07-04T08:36:53;3.20;;;1.20;;
261;SDS011;114;48.260;10.988;2022-07-04T08:39:19;2.70;;;1.20;;
261;SDS011;114;48.260;10.988;2022-07-04T08:41:44;3.93;;;0.97;;
261;SDS011;114;48.260;10.988;2022-07-04T08:44:10;1.87;;;0.90;;
261;SDS011;114;48.260;10.988;2022-07-04T08:46:40;4.90;;;0.83;;
261;SDS011;114;48.260;10.988;2022-07-04T08:49:27;3.03;;;1.20;;
261;SDS011;114;48.260;10.988;2022-07-04T08:51:59;1.47;;;0.87;;
261;SDS011;114;48.260;10.988;2022-07-04T08:54:28;1.30;;;1.20;;
261;SDS011;114;48.260;10.988;2022-07-04T08:57:14;4.67;;;1.27;;
261;SDS011;114;48.260;10.988;2022-07-04T08:59:59;3.27;;;1.40;;
261;SDS011;114;48.260;10.988;2022-07-04T09:02:29;3.53;;;1.67;;
261;SDS011;114;48.260;10.988;2022-07-04T09:04:55;2.37;;;1.00;;
261;SDS011;114;48.260;10.988;2022-07-04T09:07:21;4.30;;;0.97;;
261;SDS011;114;48.260;10.988;2022-07-04T09:09:47;4.40;;;1.60;;
261;SDS011;114;48.260;10.988;2022-07-04T09:12:14;2.60;;;1.47;;
261;SDS011;114;48.260;10.988;2022-07-04T09:14:40;2.70;;;1.60;;
261;SDS011;114;48.260;10.988;2022-07-04T09:17:06;1.77;;;1.30;;
261;SDS011;114;48.260;10.988;2022-07-04T09:19:32;2.80;;;1.40;;
261;SDS011;114;48.260;10.988;2022-07-04T09:22:02;1.37;;;1.03;;
261;SDS011;114;48.260;10.988;2022-07-04T09:24:46;1.50;;;1.17;;
261;SDS011;114;48.260;10.988;2022-07-04T09:27:30;1.10;;;1.00;;
261;SDS011;114;48.260;10.988;2022-07-04T09:30:05;2.63;;;1.40;;
261;SDS011;114;48.260;10.988;2022-07-04T09:32:42;2.20;;;1.30;;
261;SDS011;114;48.260;10.988;2022-07-04T09:35:12;3.20;;;1.30;;
261;SDS011;114;48.260;10.988;2022-07-04T09:37:42;1.43;;;0.80;;
261;SDS011;114;48.260;10.988;2022-07-04T09:40:25;2.87;;;1.13;;
261;SDS011;114;48.260;10.988;2022-07-04T09:42:59;3.47;;;1.00;;
261;SDS011;114;48.260;10.988;2022-07-04T09:45:27;1.50;;;0.90;;
261;SDS011;114;48.260;10.988;2022-07-04T09:47:54;2.20;;;0.93;;
261;SDS011;114;48.260;10.988;2022-07-04T09:50:22;3.70;;;1.10;;
261;SDS011;114;48.260;10.988;2022-07-04T09:52:51;1.77;;;0.70;;
261;SDS011;114;48.260;10.988;2022-07-04T09:57:48;1.43;;;0.90;;
261;SDS011;114;48.260;10.988;2022-07-04T10:02:53;2.13;;;0.83;;
261;SDS011;114;48.260;10.988;2022-07-04T10:05:21;1.50;;;0.77;;
261;SDS011;114;48.260;10.988;2022-07-04T10:07:50;2.00;;;1.20;;
261;SDS011;114;48.260;10.988;2022-07-04T10:12:50;0.90;;;0.80;;
261;SDS011;114;48.260;10.988;2022-07-04T10:15:18;1.13;;;0.80;;
261;SDS011;114;48.260;10.988;2022-07-04T10:17:45;1.63;;;0.80;;
261;SDS011;114;48.260;10.988;2022-07-04T10:20:11;0.60;;;0.60;;
261;SDS011;114;48.260;10.988;2022-07-04T10:22:38;1.63;;;0.90;;
261;SDS011;114;48.260;10.988;2022-07-04T10:25:05;1.00;;;0.80;;
261;SDS011;114;48.260;10.988;2022-07-04T10:27:32;0.80;;;0.70;;
261;SDS011;114;48.260;10.988;2022-07-04T10:29:59;2.20;;;1.10;;
261;SDS011;114;48.260;10.988;2022-07-04T10:32:27;1.13;;;0.97;;
261;SDS011;114;48.260;10.988;2022-07-04T10:34:54;1.60;;;1.03;;
261;SDS011;114;48.260;10.988;2022-07-04T10:37:19;1.47;;;1.10;;
261;SDS011;114;48.260;10.988;2022-07-04T10:39:46;0.60;;;0.60;;
261;SDS011;114;48.260;10.988;2022-07-04T10:42:21;0.90;;;0.70;;
261;SDS011;114;48.260;10.988;2022-07-04T10:44:50;5.00;;;0.70;;
261;SDS011;114;48.260;10.988;2022-07-04T10:47:24;1.00;;;0.70;;
261;SDS011;114;48.260;10.988;2022-07-04T10:49:53;3.03;;;0.87;;
261;SDS011;114;48.260;10.988;2022-07-04T10:52:18;1.77;;;1.00;;
261;SDS011;114;48.260;10.988;2022-07-04T10:54:44;1.83;;;0.87;;
261;SDS011;114;48.260;10.988;2022-07-04T10:57:38;1.20;;;0.90;;
261;SDS011;114;48.260;10.988;2022-07-04T11:00:31;1.23;;;0.90;;
261;SDS011;114;48.260;10.988;2022-07-04T11:03:14;2.93;;;0.93;;
261;SDS011;114;48.260;10.988;2022-07-04T11:05:42;1.60;;;0.93;;
261;SDS011;114;48.260;10.988;2022-07-04T11:08:09;1.80;;;1.07;;
261;SDS011;114;48.260;10.988;2022-07-04T11:10:36;4.53;;;0.87;;
261;SDS011;114;48.260;10.988;2022-07-04T11:13:06;0.90;;;0.70;;
261;SDS011;114;48.260;10.988;2022-07-04T11:18:04;1.30;;;0.70;;
261;SDS011;114;48.260;10.988;2022-07-04T11:20:33;1.10;;;0.97;;
261;SDS011;114;48.260;10.988;2022-07-04T11:23:14;1.17;;;0.70;;
261;SDS011;114;48.260;10.988;2022-07-04T11:25:42;0.70;;;0.70;;
261;SDS011;114;48.260;10.988;2022-07-04T11:28:26;1.17;;;0.70;;
261;SDS011;114;48.260;10.988;2022-07-04T11:31:00;0.90;;;0.70;;
261;SDS011;114;48.260;10.988;2022-07-04T11:33:28;9.13;;;1.07;;
261;SDS011;114;48.260;10.988;2022-07-04T11:36:03;1.10;;;1.03;;
261;SDS011;114;48.260;10.988;2022-07-04T11:38:50;1.13;;;0.90;;
261;SDS011;114;48.260;10.988;2022-07-04T11:41:19;1.30;;;1.10;;
261;SDS011;114;48.260;10.988;2022-07-04T11:44:08;1.90;;;1.17;;
261;SDS011;114;48.260;10.988;2022-07-04T11:47:10;6.38;;;0.77;;
261;SDS011;114;48.260;10.988;2022-07-04T11:49:45;7.90;;;1.23;;
261;SDS011;114;48.260;10.988;2022-07-04T11:52:22;7.57;;;1.67;;
261;SDS011;114;48.260;10.988;2022-07-04T11:54:50;2.92;;;0.80;;
261;SDS011;114;48.260;10.988;2022-07-04T11:57:18;3.10;;;1.00;;
261;SDS011;114;48.260;10.988;2022-07-04T12:00:04;1.42;;;0.77;;
261;SDS011;114;48.260;10.988;2022-07-04T12:02:31;3.38;;;0.80;;
261;SDS011;114;48.260;10.988;2022-07-04T12:04:58;1.33;;;0.60;;
261;SDS011;114;48.260;10.988;2022-07-04T12:07:26;2.78;;;0.70;;
261;SDS011;114;48.260;10.988;2022-07-04T12:09:53;2.25;;;1.13;;
261;SDS011;114;48.260;10.988;2022-07-04T12:12:20;1.58;;;1.08;;
261;SDS011;114;48.260;10.988;2022-07-04T12:17:42;2.28;;;0.90;;
261;SDS011;114;48.260;10.988;2022-07-04T12:20:11;7.55;;;1.52;;
261;SDS011;114;48.260;10.988;2022-07-04T12:22:52;2.35;;;0.77;;
261;SDS011;114;48.260;10.988;2022-07-04T12:25:26;1.08;;;0.85;;
261;SDS011;114;48.260;10.988;2022-07-04T12:28:11;1.75;;;0.95;;
261;SDS011;114;48.260;10.988;2022-07-04T12:30:51;6.13;;;1.13;;
261;SDS011;114;48.260;10.988;2022-07-04T12:33:18;1.77;;;0.80;;
261;SDS011;114;48.260;10.988;2022-07-04T12:35:46;2.42;;;0.75;;
261;SDS011;114;48.260;10.988;2022-07-04T12:38:14;1.70;;;0.60;;
261;SDS011;114;48.260;10.988;2022-07-04T12:46:09;3.83;;;0.70;;
261;SDS011;114;48.260;10.988;2022-07-04T12:48:36;0.85;;;0.50;;
261;SDS011;114;48.260;10.988;2022-07-04T12:51:10;2.60;;;1.45;;
261;SDS011;114;48.260;10.988;2022-07-04T12:53:37;1.75;;;0.80;;
261;SDS011;114;48.260;10.988;2022-07-04T12:56:05;2.30;;;1.00;;
261;SDS011;114;48.260;10.988;2022-07-04T12:58:31;1.73;;;0.85;;
261;SDS011;114;48.260;10.988;2022-07-04T13:00:57;3.47;;;1.00;;
261;SDS011;114;48.260;10.988;2022-07-04T13:03:23;4.18;;;0.98;;
261;SDS011;114;48.260;10.988;2022-07-04T13:05:50;3.80;;;0.85;;
261;SDS011;114;48.260;10.988;2022-07-04T13:08:16;2.13;;;1.08;;
261;SDS011;114;48.260;10.988;2022-07-04T13:10:41;3.15;;;0.75;;
261;SDS011;114;48.260;10.988;2022-07-04T13:13:07;1.33;;;0.93;;
261;SDS011;114;48.260;10.988;2022-07-04T13:15:33;5.18;;;1.05;;
261;SDS011;114;48.260;10.988;2022-07-04T13:17:59;2.08;;;0.90;;
261;SDS011;114;48.260;10.988;2022-07-04T13:20:25;3.70;;;1.00;;
261;SDS011;114;48.260;10.988;2022-07-04T13:22:51;2.85;;;0.90;;
261;SDS011;114;48.260;10.988;2022-07-04T13:25:17;1.50;;;0.70;;
261;SDS011;114;48.260;10.988;2022-07-04T13:27:43;4.32;;;0.85;;
261;SDS011;114;48.260;10.988;2022-07-04T13:30:10;1.33;;;1.08;;
261;SDS011;114;48.260;10.988;2022-07-04T13:32:36;1.25;;;1.15;;
261;SDS011;114;48.260;10.988;2022-07-04T13:35:02;3.45;;;0.57;;
261;SDS011;114;48.260;10.988;2022-07-04T13:37:29;4.22;;;0.82;;
261;SDS011;114;48.260;10.988;2022-07-04T13:39:54;2.83;;;0.88;;
261;SDS011;114;48.260;10.988;2022-07-04T13:42:20;0.80;;;0.55;;
261;SDS011;114;48.260;10.988;2022-07-04T13:45:06;8.65;;;0.80;;
261;SDS011;114;48.260;10.988;2022-07-04T13:47:32;1.48;;;0.73;;
261;SDS011;114;48.260;10.988;2022-07-04T13:49:59;1.05;;;0.80;;
261;SDS011;114;48.260;10.988;2022-07-04T13:52:25;3.63;;;1.20;;
261;SDS011;114;48.260;10.988;2022-07-04T13:54:52;1.42;;;0.90;;
261;SDS011;114;48.260;10.988;2022-07-04T13:57:17;8.02;;;1.23;;
261;SDS011;114;48.260;10.988;2022-07-04T13:59:43;1.02;;;0.60;;
261;SDS011;114;48.260;10.988;2022-07-04T14:02:09;2.35;;;1.08;;
261;SDS011;114;48.260;10.988;2022-07-04T14:04:35;3.35;;;1.02;;
261;SDS011;114;48.260;10.988;2022-07-04T14:07:01;1.40;;;0.90;;
261;SDS011;114;48.260;10.988;2022-07-04T14:09:27;1.45;;;0.90;;
261;SDS011;114;48.260;10.988;2022-07-04T14:11:52;7.28;;;1.48;;
261;SDS011;114;48.260;10.988;2022-07-04T14:14:19;3.40;;;0.70;;
261;SDS011;114;48.260;10.988;2022-07-04T14:16:45;2.10;;;1.08;;
261;SDS011;114;48.260;10.988;2022-07-04T14:19:10;2.08;;;0.70;;
261;SDS011;114;48.260;10.988;2022-07-04T14:21:36;4.20;;;1.00;;
261;SDS011;114;48.260;10.988;2022-07-04T14:24:02;1.52;;;0.95;;
261;SDS011;114;48.260;10.988;2022-07-04T14:26:28;1.20;;;0.90;;
261;SDS011;114;48.260;10.988;2022-07-04T14:28:53;1.08;;;0.95;;
261;SDS011;114;48.260;10.988;2022-07-04T14:31:23;1.95;;;0.82;;
261;SDS011;114;48.260;10.988;2022-07-04T14:33:49;1.77;;;0.93;;
261;SDS011;114;48.260;10.988;2022-07-04T14:36:14;1.65;;;1.45;;
261;SDS011;114;48.260;10.988;2022-07-04T14:38:41;1.55;;;0.63;;
261;SDS011;114;48.260;10.988;2022-07-04T14:41:06;2.05;;;1.10;;
261;SDS011;114;48.260;10.988;2022-07-04T14:43:36;2.15;;;0.93;;
261;SDS011;114;48.260;10.988;2022-07-04T14:46:03;5.10;;;1.30;;
261;SDS011;114;48.260;10.988;2022-07-04T14:48:29;1.70;;;1.00;;
261;SDS011;114;48.260;10.988;2022-07-04T14:50:54;3.38;;;1.33;;
261;SDS011;114;48.260;10.988;2022-07-04T14:53:20;0.63;;;0.63;;
261;SDS011;114;48.260;10.988;2022-07-04T14:55:46;4.50;;;0.80;;
261;SDS011;114;48.260;10.988;2022-07-04T14:58:14;3.03;;;1.60;;
261;SDS011;114;48.260;10.988;2022-07-04T15:00:39;1.00;;;1.00;;
261;SDS011;114;48.260;10.988;2022-07-04T15:03:05;3.20;;;0.75;;
261;SDS011;114;48.260;10.988;2022-07-04T15:05:31;2.10;;;1.02;;
261;SDS011;114;48.260;10.988;2022-07-04T15:07:57;1.80;;;0.88;;
261;SDS011;114;48.260;10.988;2022-07-04T15:10:23;0.90;;;0.77;;
261;SDS011;114;48.260;10.988;2022-07-04T15:12:49;7.65;;;0.40;;
261;SDS011;114;48.260;10.988;2022-07-04T15:15:15;2.97;;;0.50;;
261;SDS011;114;48.260;10.988;2022-07-04T15:17:41;0.70;;;0.60;;
261;SDS011;114;48.260;10.988;2022-07-04T15:20:07;1.58;;;0.63;;
261;SDS011;114;48.260;10.988;2022-07-04T15:22:52;2.15;;;1.50;;
261;SDS011;114;48.260;10.988;2022-07-04T15:25:36;5.93;;;1.10;;
261;SDS011;114;48.260;10.988;2022-07-04T15:28:02;8.57;;;2.25;;
261;SDS011;114;48.260;10.988;2022-07-04T15:30:28;8.05;;;1.80;;
261;SDS011;114;48.260;10.988;2022-07-04T15:32:56;1.77;;;1.30;;
261;SDS011;114;48.260;10.988;2022-07-04T15:35:23;1.70;;;0.95;;
261;SDS011;114;48.260;10.988;2022-07-04T15:37:49;1.85;;;1.15;;
261;SDS011;114;48.260;10.988;2022-07-04T15:40:14;1.45;;;1.10;;
261;SDS011;114;48.260;10.988;2022-07-04T15:42:40;1.20;;;1.10;;
261;SDS011;114;48.260;10.988;2022-07-04T15:45:06;1.58;;;1.13;;
261;SDS011;114;48.260;10.988;2022-07-04T15:47:32;1.02;;;0.93;;
261;SDS011;114;48.260;10.988;2022-07-04T15:49:58;2.20;;;1.38;;
261;SDS011;114;48.260;10.988;2022-07-04T15:52:23;1.43;;;1.07;;